sensor_id;sensor_type;location;lat;lon;timestamp;P1;durP1;ratioP1;P2;durP2;ratioP2
42770;SDS011;28426;42.872;25.314;2023-01-15T00:00:17;41.75;;;22.83;;
42770;SDS011;28426;42.872;25.314;2023-01-15T00:02:48;47.60;;;25.95;;
42770;SDS011;28426;42.872;25.314;2023-01-15T00:05:19;47.55;;;27.08;;
42770;SDS011;28426;42.872;25.314;2023-01-15T00:07:50;43.05;;;23.83;;
42770;SDS011;28426;42.872;25.314;2023-01-15T00:10:23;38.75;;;21.73;;
42770;SDS011;28426;42.872;25.314;2023-01-15T00:12:54;34.90;;;20.17;;
42770;SDS011;28426;42.872;25.314;2023-01-15T00:15:25;39.35;;;22.25;;
42770;SDS011;28426;42.872;25.314;2023-01-15T00:17:55;37.00;;;20.42;;
42770;SDS011;28426;42.872;25.314;2023-01-15T00:20:26;36.78;;;20.92;;
42770;SDS011;28426;42.872;25.314;2023-01-15T00:22:57;37.13;;;20.63;;
42770;SDS011;28426;42.872;25.314;2023-01-15T00:25:30;36.60;;;21.38;;
42770;SDS011;28426;42.872;25.314;2023-01-15T00:28:28;40.15;;;21.70;;
42770;SDS011;28426;42.872;25.314;2023-01-15T00:30:59;32.08;;;18.13;;
42770;SDS011;28426;42.872;25.314;2023-01-15T00:33:29;39.53;;;21.98;;
42770;SDS011;28426;42.872;25.314;2023-01-15T00:36:00;42.50;;;22.83;;
42770;SDS011;28426;42.872;25.314;2023-01-15T00:38:30;42.38;;;22.67;;
42770;SDS011;28426;42.872;25.314;2023-01-15T00:41:04;32.92;;;18.13;;
42770;SDS011;28426;42.872;25.314;2023-01-15T00:43:35;28.90;;;16.63;;
42770;SDS011;28426;42.872;25.314;2023-01-15T00:46:05;33.63;;;17.17;;
42770;SDS011;28426;42.872;25.314;2023-01-15T00:48:36;30.20;;;16.60;;
42770;SDS011;28426;42.872;25.314;2023-01-15T00:51:07;31.13;;;17.30;;
42770;SDS011;28426;42.872;25.314;2023-01-15T00:53:37;32.90;;;17.63;;
42770;SDS011;28426;42.872;25.314;2023-01-15T00:56:11;30.63;;;17.65;;
42770;SDS011;28426;42.872;25.314;2023-01-15T00:58:41;33.90;;;17.85;;
42770;SDS011;28426;42.872;25.314;2023-01-15T01:01:13;34.03;;;19.13;;
42770;SDS011;28426;42.872;25.314;2023-01-15T01:03:43;38.38;;;19.67;;
42770;SDS011;28426;42.872;25.314;2023-01-15T01:06:21;32.10;;;18.23;;
42770;SDS011;28426;42.872;25.314;2023-01-15T01:08:52;31.75;;;18.00;;
42770;SDS011;28426;42.872;25.314;2023-01-15T01:11:26;29.40;;;17.02;;
42770;SDS011;28426;42.872;25.314;2023-01-15T01:14:00;31.77;;;16.40;;
42770;SDS011;28426;42.872;25.314;2023-01-15T01:16:32;36.92;;;18.02;;
42770;SDS011;28426;42.872;25.314;2023-01-15T01:19:05;29.17;;;15.45;;
42770;SDS011;28426;42.872;25.314;2023-01-15T01:21:37;30.23;;;16.20;;
42770;SDS011;28426;42.872;25.314;2023-01-15T01:24:10;24.73;;;14.43;;
42770;SDS011;28426;42.872;25.314;2023-01-15T01:26:45;28.45;;;16.42;;
42770;SDS011;28426;42.872;25.314;2023-01-15T01:29:21;30.33;;;17.05;;
42770;SDS011;28426;42.872;25.314;2023-01-15T01:31:52;37.33;;;19.52;;
42770;SDS011;28426;42.872;25.314;2023-01-15T01:34:23;30.23;;;16.65;;
42770;SDS011;28426;42.872;25.314;2023-01-15T01:36:53;24.48;;;13.60;;
42770;SDS011;28426;42.872;25.314;2023-01-15T01:39:24;23.77;;;13.60;;
42770;SDS011;28426;42.872;25.314;2023-01-15T01:41:59;27.83;;;15.55;;
42770;SDS011;28426;42.872;25.314;2023-01-15T01:47:30;26.50;;;15.02;;
42770;SDS011;28426;42.872;25.314;2023-01-15T01:50:04;26.60;;;14.82;;
42770;SDS011;28426;42.872;25.314;2023-01-15T01:52:39;28.55;;;15.13;;
42770;SDS011;28426;42.872;25.314;2023-01-15T01:55:13;24.77;;;15.57;;
42770;SDS011;28426;42.872;25.314;2023-01-15T01:57:50;27.13;;;15.52;;
42770;SDS011;28426;42.872;25.314;2023-01-15T02:00:23;25.27;;;13.52;;
42770;SDS011;28426;42.872;25.314;2023-01-15T02:02:54;26.13;;;14.13;;
42770;SDS011;28426;42.872;25.314;2023-01-15T02:05:26;29.40;;;15.73;;
42770;SDS011;28426;42.872;25.314;2023-01-15T02:08:00;32.50;;;19.57;;
42770;SDS011;28426;42.872;25.314;2023-01-15T02:10:32;31.42;;;17.85;;
42770;SDS011;28426;42.872;25.314;2023-01-15T02:13:14;25.42;;;14.38;;
42770;SDS011;28426;42.872;25.314;2023-01-15T02:15:51;27.70;;;13.18;;
42770;SDS011;28426;42.872;25.314;2023-01-15T02:18:28;23.20;;;13.13;;
42770;SDS011;28426;42.872;25.314;2023-01-15T02:21:05;23.85;;;13.15;;
42770;SDS011;28426;42.872;25.314;2023-01-15T02:24:02;21.92;;;12.90;;
42770;SDS011;28426;42.872;25.314;2023-01-15T02:26:49;24.40;;;12.15;;
42770;SDS011;28426;42.872;25.314;2023-01-15T02:29:39;24.40;;;12.75;;
42770;SDS011;28426;42.872;25.314;2023-01-15T02:32:21;20.73;;;12.20;;
42770;SDS011;28426;42.872;25.314;2023-01-15T02:35:00;26.15;;;12.65;;
42770;SDS011;28426;42.872;25.314;2023-01-15T02:37:36;25.42;;;14.00;;
42770;SDS011;28426;42.872;25.314;2023-01-15T02:40:14;25.23;;;13.60;;
42770;SDS011;28426;42.872;25.314;2023-01-15T02:42:48;25.70;;;13.80;;
42770;SDS011;28426;42.872;25.314;2023-01-15T02:45:21;24.97;;;14.23;;
42770;SDS011;28426;42.872;25.314;2023-01-15T02:48:01;26.40;;;13.05;;
42770;SDS011;28426;42.872;25.314;2023-01-15T02:50:35;24.08;;;12.60;;
42770;SDS011;28426;42.872;25.314;2023-01-15T02:53:09;21.70;;;11.95;;
42770;SDS011;28426;42.872;25.314;2023-01-15T02:55:45;17.63;;;10.85;;
42770;SDS011;28426;42.872;25.314;2023-01-15T02:58:25;22.23;;;11.95;;
42770;SDS011;28426;42.872;25.314;2023-01-15T03:01:03;26.65;;;14.18;;
42770;SDS011;28426;42.872;25.314;2023-01-15T03:03:41;25.08;;;14.70;;
42770;SDS011;28426;42.872;25.314;2023-01-15T03:06:16;39.92;;;20.67;;
42770;SDS011;28426;42.872;25.314;2023-01-15T03:08:51;42.50;;;24.20;;
42770;SDS011;28426;42.872;25.314;2023-01-15T03:11:21;35.40;;;19.88;;
42770;SDS011;28426;42.872;25.314;2023-01-15T03:14:01;30.10;;;16.30;;
42770;SDS011;28426;42.872;25.314;2023-01-15T03:16:37;30.58;;;16.75;;
42770;SDS011;28426;42.872;25.314;2023-01-15T03:19:11;31.45;;;18.05;;
42770;SDS011;28426;42.872;25.314;2023-01-15T03:21:53;33.60;;;19.15;;
42770;SDS011;28426;42.872;25.314;2023-01-15T03:24:28;36.47;;;20.27;;
42770;SDS011;28426;42.872;25.314;2023-01-15T03:27:02;38.95;;;20.88;;
42770;SDS011;28426;42.872;25.314;2023-01-15T03:29:38;31.63;;;19.30;;
42770;SDS011;28426;42.872;25.314;2023-01-15T03:32:12;29.20;;;16.30;;
42770;SDS011;28426;42.872;25.314;2023-01-15T03:34:45;26.67;;;14.35;;
42770;SDS011;28426;42.872;25.314;2023-01-15T03:37:20;29.23;;;17.55;;
42770;SDS011;28426;42.872;25.314;2023-01-15T03:39:54;28.77;;;16.67;;
42770;SDS011;28426;42.872;25.314;2023-01-15T03:42:35;27.52;;;15.85;;
42770;SDS011;28426;42.872;25.314;2023-01-15T03:45:19;26.45;;;15.60;;
42770;SDS011;28426;42.872;25.314;2023-01-15T03:47:55;27.25;;;15.55;;
42770;SDS011;28426;42.872;25.314;2023-01-15T03:50:34;31.27;;;15.95;;
42770;SDS011;28426;42.872;25.314;2023-01-15T03:53:14;29.17;;;15.63;;
42770;SDS011;28426;42.872;25.314;2023-01-15T03:55:58;31.60;;;16.92;;
42770;SDS011;28426;42.872;25.314;2023-01-15T03:58:42;32.30;;;18.48;;
42770;SDS011;28426;42.872;25.314;2023-01-15T04:01:25;28.83;;;15.82;;
42770;SDS011;28426;42.872;25.314;2023-01-15T04:04:00;28.88;;;15.63;;
42770;SDS011;28426;42.872;25.314;2023-01-15T04:06:33;31.10;;;15.93;;
42770;SDS011;28426;42.872;25.314;2023-01-15T04:09:07;30.30;;;16.70;;
42770;SDS011;28426;42.872;25.314;2023-01-15T04:11:43;25.85;;;15.40;;
42770;SDS011;28426;42.872;25.314;2023-01-15T04:14:13;27.08;;;15.60;;
42770;SDS011;28426;42.872;25.314;2023-01-15T04:16:53;26.60;;;14.13;;
42770;SDS011;28426;42.872;25.314;2023-01-15T04:19:24;25.20;;;14.63;;
42770;SDS011;28426;42.872;25.314;2023-01-15T04:22:01;27.33;;;14.93;;
42770;SDS011;28426;42.872;25.314;2023-01-15T04:24:32;25.42;;;14.45;;
42770;SDS011;28426;42.872;25.314;2023-01-15T04:27:03;24.38;;;13.90;;
42770;SDS011;28426;42.872;25.314;2023-01-15T04:29:33;24.35;;;14.60;;
42770;SDS011;28426;42.872;25.314;2023-01-15T04:32:07;27.73;;;15.27;;
42770;SDS011;28426;42.872;25.314;2023-01-15T04:34:37;26.42;;;14.18;;
42770;SDS011;28426;42.872;25.314;2023-01-15T04:37:08;28.33;;;14.63;;
42770;SDS011;28426;42.872;25.314;2023-01-15T04:39:38;24.42;;;13.98;;
42770;SDS011;28426;42.872;25.314;2023-01-15T04:42:10;24.73;;;14.27;;
42770;SDS011;28426;42.872;25.314;2023-01-15T04:44:53;25.52;;;14.23;;
42770;SDS011;28426;42.872;25.314;2023-01-15T04:47:28;26.88;;;15.23;;
42770;SDS011;28426;42.872;25.314;2023-01-15T04:49:59;29.42;;;16.10;;
42770;SDS011;28426;42.872;25.314;2023-01-15T04:52:30;35.70;;;16.40;;
42770;SDS011;28426;42.872;25.314;2023-01-15T04:55:00;26.27;;;14.05;;
42770;SDS011;28426;42.872;25.314;2023-01-15T04:57:31;22.05;;;12.52;;
42770;SDS011;28426;42.872;25.314;2023-01-15T05:00:03;24.55;;;13.13;;
42770;SDS011;28426;42.872;25.314;2023-01-15T05:02:37;26.58;;;14.30;;
42770;SDS011;28426;42.872;25.314;2023-01-15T05:05:08;29.70;;;15.55;;
42770;SDS011;28426;42.872;25.314;2023-01-15T05:07:38;28.50;;;16.30;;
42770;SDS011;28426;42.872;25.314;2023-01-15T05:10:09;31.95;;;18.20;;
42770;SDS011;28426;42.872;25.314;2023-01-15T05:12:40;29.17;;;16.67;;
42770;SDS011;28426;42.872;25.314;2023-01-15T05:15:11;33.70;;;18.27;;
42770;SDS011;28426;42.872;25.314;2023-01-15T05:17:44;33.80;;;19.02;;
42770;SDS011;28426;42.872;25.314;2023-01-15T05:20:14;47.15;;;24.75;;
42770;SDS011;28426;42.872;25.314;2023-01-15T05:22:45;46.95;;;25.98;;
42770;SDS011;28426;42.872;25.314;2023-01-15T05:25:16;49.65;;;28.67;;
42770;SDS011;28426;42.872;25.314;2023-01-15T05:27:47;46.17;;;25.77;;
42770;SDS011;28426;42.872;25.314;2023-01-15T05:30:20;39.22;;;21.48;;
42770;SDS011;28426;42.872;25.314;2023-01-15T05:32:53;36.30;;;19.50;;
42770;SDS011;28426;42.872;25.314;2023-01-15T05:35:24;32.63;;;18.05;;
42770;SDS011;28426;42.872;25.314;2023-01-15T05:37:54;34.40;;;19.88;;
42770;SDS011;28426;42.872;25.314;2023-01-15T05:40:25;34.30;;;19.70;;
42770;SDS011;28426;42.872;25.314;2023-01-15T05:42:56;38.72;;;21.92;;
42770;SDS011;28426;42.872;25.314;2023-01-15T05:45:26;39.53;;;21.02;;
42770;SDS011;28426;42.872;25.314;2023-01-15T05:47:59;35.60;;;21.15;;
42770;SDS011;28426;42.872;25.314;2023-01-15T05:50:30;32.22;;;19.40;;
42770;SDS011;28426;42.872;25.314;2023-01-15T05:53:01;37.45;;;21.75;;
42770;SDS011;28426;42.872;25.314;2023-01-15T05:55:32;39.08;;;22.70;;
42770;SDS011;28426;42.872;25.314;2023-01-15T05:58:02;41.60;;;24.45;;
42770;SDS011;28426;42.872;25.314;2023-01-15T06:00:33;41.55;;;22.67;;
42770;SDS011;28426;42.872;25.314;2023-01-15T06:03:06;36.25;;;20.80;;
42770;SDS011;28426;42.872;25.314;2023-01-15T06:05:37;35.65;;;21.35;;
42770;SDS011;28426;42.872;25.314;2023-01-15T06:08:07;32.53;;;19.35;;
42770;SDS011;28426;42.872;25.314;2023-01-15T06:10:39;34.13;;;18.67;;
42770;SDS011;28426;42.872;25.314;2023-01-15T06:13:13;33.88;;;18.63;;
42770;SDS011;28426;42.872;25.314;2023-01-15T06:15:44;32.03;;;18.65;;
42770;SDS011;28426;42.872;25.314;2023-01-15T06:18:17;33.30;;;19.27;;
42770;SDS011;28426;42.872;25.314;2023-01-15T06:20:48;38.85;;;22.73;;
42770;SDS011;28426;42.872;25.314;2023-01-15T06:23:18;37.13;;;20.95;;
42770;SDS011;28426;42.872;25.314;2023-01-15T06:25:49;38.67;;;22.95;;
42770;SDS011;28426;42.872;25.314;2023-01-15T06:28:20;47.05;;;26.65;;
42770;SDS011;28426;42.872;25.314;2023-01-15T06:30:50;34.42;;;20.92;;
42770;SDS011;28426;42.872;25.314;2023-01-15T06:33:23;39.17;;;23.75;;
42770;SDS011;28426;42.872;25.314;2023-01-15T06:35:54;40.83;;;23.83;;
42770;SDS011;28426;42.872;25.314;2023-01-15T06:38:25;38.95;;;23.75;;
42770;SDS011;28426;42.872;25.314;2023-01-15T06:40:57;39.20;;;23.33;;
42770;SDS011;28426;42.872;25.314;2023-01-15T06:43:28;35.15;;;19.65;;
42770;SDS011;28426;42.872;25.314;2023-01-15T06:46:11;31.95;;;20.20;;
42770;SDS011;28426;42.872;25.314;2023-01-15T06:49:10;36.13;;;20.23;;
42770;SDS011;28426;42.872;25.314;2023-01-15T06:51:41;34.05;;;20.02;;
42770;SDS011;28426;42.872;25.314;2023-01-15T06:54:11;43.20;;;19.50;;
42770;SDS011;28426;42.872;25.314;2023-01-15T06:56:42;31.67;;;19.75;;
42770;SDS011;28426;42.872;25.314;2023-01-15T06:59:12;31.10;;;20.25;;
42770;SDS011;28426;42.872;25.314;2023-01-15T07:01:43;32.72;;;19.67;;
42770;SDS011;28426;42.872;25.314;2023-01-15T07:04:16;30.83;;;18.48;;
42770;SDS011;28426;42.872;25.314;2023-01-15T07:06:47;29.55;;;19.40;;
42770;SDS011;28426;42.872;25.314;2023-01-15T07:09:17;30.98;;;19.52;;
42770;SDS011;28426;42.872;25.314;2023-01-15T07:11:48;32.00;;;17.85;;
42770;SDS011;28426;42.872;25.314;2023-01-15T07:14:19;30.50;;;17.00;;
42770;SDS011;28426;42.872;25.314;2023-01-15T07:16:51;33.92;;;17.33;;
42770;SDS011;28426;42.872;25.314;2023-01-15T07:19:24;25.75;;;15.80;;
42770;SDS011;28426;42.872;25.314;2023-01-15T07:21:56;25.75;;;15.35;;
42770;SDS011;28426;42.872;25.314;2023-01-15T07:24:26;28.77;;;17.10;;
42770;SDS011;28426;42.872;25.314;2023-01-15T07:26:57;28.70;;;16.92;;
42770;SDS011;28426;42.872;25.314;2023-01-15T07:29:28;29.10;;;17.42;;
42770;SDS011;28426;42.872;25.314;2023-01-15T07:31:58;31.02;;;17.08;;
42770;SDS011;28426;42.872;25.314;2023-01-15T07:34:32;25.83;;;15.20;;
42770;SDS011;28426;42.872;25.314;2023-01-15T07:37:02;28.67;;;16.73;;
42770;SDS011;28426;42.872;25.314;2023-01-15T07:39:33;27.08;;;16.27;;
42770;SDS011;28426;42.872;25.314;2023-01-15T07:42:04;26.85;;;16.45;;
42770;SDS011;28426;42.872;25.314;2023-01-15T07:44:47;25.60;;;15.35;;
42770;SDS011;28426;42.872;25.314;2023-01-15T07:47:29;19.90;;;13.38;;
42770;SDS011;28426;42.872;25.314;2023-01-15T07:50:16;24.08;;;14.18;;
42770;SDS011;28426;42.872;25.314;2023-01-15T07:52:49;22.65;;;13.32;;
42770;SDS011;28426;42.872;25.314;2023-01-15T07:55:20;22.40;;;13.38;;
42770;SDS011;28426;42.872;25.314;2023-01-15T07:57:51;21.80;;;13.18;;
42770;SDS011;28426;42.872;25.314;2023-01-15T08:00:22;23.65;;;12.93;;
42770;SDS011;28426;42.872;25.314;2023-01-15T08:02:54;20.15;;;12.18;;
42770;SDS011;28426;42.872;25.314;2023-01-15T08:05:28;21.23;;;12.25;;
42770;SDS011;28426;42.872;25.314;2023-01-15T08:07:58;21.23;;;13.20;;
42770;SDS011;28426;42.872;25.314;2023-01-15T08:10:29;25.40;;;15.55;;
42770;SDS011;28426;42.872;25.314;2023-01-15T08:13:20;24.65;;;15.48;;
42770;SDS011;28426;42.872;25.314;2023-01-15T08:16:03;21.70;;;13.85;;
42770;SDS011;28426;42.872;25.314;2023-01-15T08:18:35;24.40;;;14.23;;
42770;SDS011;28426;42.872;25.314;2023-01-15T08:21:08;21.85;;;14.20;;
42770;SDS011;28426;42.872;25.314;2023-01-15T08:23:43;25.77;;;15.55;;
42770;SDS011;28426;42.872;25.314;2023-01-15T08:26:13;22.75;;;14.55;;
42770;SDS011;28426;42.872;25.314;2023-01-15T08:28:44;27.55;;;18.20;;
42770;SDS011;28426;42.872;25.314;2023-01-15T08:31:14;30.67;;;19.35;;
42770;SDS011;28426;42.872;25.314;2023-01-15T08:33:45;26.80;;;17.20;;
42770;SDS011;28426;42.872;25.314;2023-01-15T08:36:18;24.95;;;16.67;;
42770;SDS011;28426;42.872;25.314;2023-01-15T08:38:49;20.13;;;13.68;;
42770;SDS011;28426;42.872;25.314;2023-01-15T08:41:20;23.15;;;13.75;;
42770;SDS011;28426;42.872;25.314;2023-01-15T08:43:50;25.23;;;16.02;;
42770;SDS011;28426;42.872;25.314;2023-01-15T08:46:21;23.30;;;13.95;;
42770;SDS011;28426;42.872;25.314;2023-01-15T08:48:52;22.60;;;14.93;;
42770;SDS011;28426;42.872;25.314;2023-01-15T08:51:25;24.98;;;15.95;;
42770;SDS011;28426;42.872;25.314;2023-01-15T08:53:56;28.35;;;15.90;;
42770;SDS011;28426;42.872;25.314;2023-01-15T08:56:27;28.10;;;18.45;;
42770;SDS011;28426;42.872;25.314;2023-01-15T08:58:57;31.92;;;17.67;;
42770;SDS011;28426;42.872;25.314;2023-01-15T09:01:28;32.10;;;19.52;;
42770;SDS011;28426;42.872;25.314;2023-01-15T09:03:59;30.98;;;18.48;;
42770;SDS011;28426;42.872;25.314;2023-01-15T09:06:32;28.58;;;18.52;;
42770;SDS011;28426;42.872;25.314;2023-01-15T09:09:03;30.33;;;19.65;;
42770;SDS011;28426;42.872;25.314;2023-01-15T09:11:33;30.10;;;19.38;;
42770;SDS011;28426;42.872;25.314;2023-01-15T09:14:06;30.42;;;19.13;;
42770;SDS011;28426;42.872;25.314;2023-01-15T09:16:57;37.85;;;18.55;;
42770;SDS011;28426;42.872;25.314;2023-01-15T09:19:28;34.35;;;17.55;;
42770;SDS011;28426;42.872;25.314;2023-01-15T09:22:01;22.90;;;13.52;;
42770;SDS011;28426;42.872;25.314;2023-01-15T09:24:32;29.20;;;15.55;;
42770;SDS011;28426;42.872;25.314;2023-01-15T09:27:02;32.35;;;16.63;;
42770;SDS011;28426;42.872;25.314;2023-01-15T09:29:33;35.47;;;16.75;;
42770;SDS011;28426;42.872;25.314;2023-01-15T09:32:04;56.42;;;18.40;;
42770;SDS011;28426;42.872;25.314;2023-01-15T09:34:36;28.80;;;16.20;;
42770;SDS011;28426;42.872;25.314;2023-01-15T09:37:09;32.85;;;17.42;;
42770;SDS011;28426;42.872;25.314;2023-01-15T09:39:40;37.88;;;16.58;;
42770;SDS011;28426;42.872;25.314;2023-01-15T09:42:13;34.30;;;16.67;;
42770;SDS011;28426;42.872;25.314;2023-01-15T09:45:03;39.92;;;18.10;;
42770;SDS011;28426;42.872;25.314;2023-01-15T09:47:43;28.20;;;17.52;;
42770;SDS011;28426;42.872;25.314;2023-01-15T09:50:26;29.48;;;14.85;;
42770;SDS011;28426;42.872;25.314;2023-01-15T09:53:09;33.47;;;15.00;;
42770;SDS011;28426;42.872;25.314;2023-01-15T09:55:51;25.50;;;11.90;;
42770;SDS011;28426;42.872;25.314;2023-01-15T09:58:26;18.95;;;10.40;;
42770;SDS011;28426;42.872;25.314;2023-01-15T10:01:02;18.27;;;10.27;;
42770;SDS011;28426;42.872;25.314;2023-01-15T10:03:34;22.05;;;10.82;;
42770;SDS011;28426;42.872;25.314;2023-01-15T10:06:13;20.45;;;10.88;;
42770;SDS011;28426;42.872;25.314;2023-01-15T10:08:53;27.92;;;12.18;;
42770;SDS011;28426;42.872;25.314;2023-01-15T10:11:34;37.88;;;11.88;;
42770;SDS011;28426;42.872;25.314;2023-01-15T10:17:17;25.73;;;10.77;;
42770;SDS011;28426;42.872;25.314;2023-01-15T10:19:51;19.92;;;10.25;;
42770;SDS011;28426;42.872;25.314;2023-01-15T10:22:29;17.38;;;8.73;;
42770;SDS011;28426;42.872;25.314;2023-01-15T10:25:13;10.55;;;6.38;;
42770;SDS011;28426;42.872;25.314;2023-01-15T10:27:46;10.93;;;5.78;;
42770;SDS011;28426;42.872;25.314;2023-01-15T10:30:22;8.10;;;4.93;;
42770;SDS011;28426;42.872;25.314;2023-01-15T10:33:04;10.75;;;6.20;;
42770;SDS011;28426;42.872;25.314;2023-01-15T10:35:45;9.85;;;6.40;;
42770;SDS011;28426;42.872;25.314;2023-01-15T10:38:25;8.40;;;5.22;;
42770;SDS011;28426;42.872;25.314;2023-01-15T10:41:13;9.95;;;5.63;;
42770;SDS011;28426;42.872;25.314;2023-01-15T10:44:01;12.07;;;5.53;;
42770;SDS011;28426;42.872;25.314;2023-01-15T10:46:39;9.32;;;5.20;;
42770;SDS011;28426;42.872;25.314;2023-01-15T10:49:12;9.02;;;5.40;;
42770;SDS011;28426;42.872;25.314;2023-01-15T10:51:45;7.57;;;4.57;;
42770;SDS011;28426;42.872;25.314;2023-01-15T10:54:22;7.93;;;4.78;;
42770;SDS011;28426;42.872;25.314;2023-01-15T10:56:59;12.68;;;5.03;;
42770;SDS011;28426;42.872;25.314;2023-01-15T10:59:39;8.90;;;4.60;;
42770;SDS011;28426;42.872;25.314;2023-01-15T11:02:20;9.20;;;5.25;;
42770;SDS011;28426;42.872;25.314;2023-01-15T11:04:55;7.25;;;4.25;;
42770;SDS011;28426;42.872;25.314;2023-01-15T11:07:32;11.60;;;5.35;;
42770;SDS011;28426;42.872;25.314;2023-01-15T11:10:26;8.15;;;4.75;;
42770;SDS011;28426;42.872;25.314;2023-01-15T11:13:01;9.32;;;5.05;;
42770;SDS011;28426;42.872;25.314;2023-01-15T11:15:55;7.43;;;3.80;;
42770;SDS011;28426;42.872;25.314;2023-01-15T11:18:39;8.30;;;3.90;;
42770;SDS011;28426;42.872;25.314;2023-01-15T11:21:32;8.70;;;3.47;;
42770;SDS011;28426;42.872;25.314;2023-01-15T11:24:13;7.10;;;3.50;;
42770;SDS011;28426;42.872;25.314;2023-01-15T11:26:46;9.18;;;3.70;;
42770;SDS011;28426;42.872;25.314;2023-01-15T11:29:29;6.38;;;3.88;;
42770;SDS011;28426;42.872;25.314;2023-01-15T11:32:03;5.80;;;3.58;;
42770;SDS011;28426;42.872;25.314;2023-01-15T11:34:51;9.07;;;4.70;;
42770;SDS011;28426;42.872;25.314;2023-01-15T11:37:22;6.93;;;4.35;;
42770;SDS011;28426;42.872;25.314;2023-01-15T11:39:54;6.10;;;3.88;;
42770;SDS011;28426;42.872;25.314;2023-01-15T11:42:30;10.50;;;4.93;;
42770;SDS011;28426;42.872;25.314;2023-01-15T11:45:17;10.00;;;4.63;;
42770;SDS011;28426;42.872;25.314;2023-01-15T11:48:08;6.60;;;3.95;;
42770;SDS011;28426;42.872;25.314;2023-01-15T11:50:59;6.88;;;3.95;;
42770;SDS011;28426;42.872;25.314;2023-01-15T11:53:32;10.25;;;5.85;;
42770;SDS011;28426;42.872;25.314;2023-01-15T11:56:08;9.77;;;5.10;;
42770;SDS011;28426;42.872;25.314;2023-01-15T11:58:44;12.90;;;6.97;;
42770;SDS011;28426;42.872;25.314;2023-01-15T12:01:22;9.20;;;4.82;;
42770;SDS011;28426;42.872;25.314;2023-01-15T12:03:55;6.95;;;4.15;;
42770;SDS011;28426;42.872;25.314;2023-01-15T12:06:27;10.05;;;5.30;;
42770;SDS011;28426;42.872;25.314;2023-01-15T12:09:00;11.43;;;5.25;;
42770;SDS011;28426;42.872;25.314;2023-01-15T12:11:45;11.02;;;6.47;;
42770;SDS011;28426;42.872;25.314;2023-01-15T12:14:32;13.15;;;6.60;;
42770;SDS011;28426;42.872;25.314;2023-01-15T12:20:15;10.10;;;4.30;;
42770;SDS011;28426;42.872;25.314;2023-01-15T12:23:04;6.97;;;3.95;;
42770;SDS011;28426;42.872;25.314;2023-01-15T12:26:02;6.88;;;3.88;;
42770;SDS011;28426;42.872;25.314;2023-01-15T12:28:46;8.90;;;4.82;;
42770;SDS011;28426;42.872;25.314;2023-01-15T12:31:24;8.95;;;5.38;;
42770;SDS011;28426;42.872;25.314;2023-01-15T12:34:01;7.40;;;3.90;;
42770;SDS011;28426;42.872;25.314;2023-01-15T12:36:40;11.10;;;5.50;;
42770;SDS011;28426;42.872;25.314;2023-01-15T12:39:20;10.75;;;5.57;;
42770;SDS011;28426;42.872;25.314;2023-01-15T12:41:56;10.23;;;4.75;;
42770;SDS011;28426;42.872;25.314;2023-01-15T12:44:44;8.70;;;5.20;;
42770;SDS011;28426;42.872;25.314;2023-01-15T12:47:33;8.20;;;5.18;;
42770;SDS011;28426;42.872;25.314;2023-01-15T12:50:18;12.93;;;5.57;;
42770;SDS011;28426;42.872;25.314;2023-01-15T12:52:57;8.70;;;5.05;;
42770;SDS011;28426;42.872;25.314;2023-01-15T12:55:35;10.68;;;5.85;;
42770;SDS011;28426;42.872;25.314;2023-01-15T12:58:12;11.55;;;5.80;;
42770;SDS011;28426;42.872;25.314;2023-01-15T13:00:50;14.75;;;7.88;;
42770;SDS011;28426;42.872;25.314;2023-01-15T13:03:33;17.98;;;8.52;;
42770;SDS011;28426;42.872;25.314;2023-01-15T13:06:17;10.57;;;5.25;;
42770;SDS011;28426;42.872;25.314;2023-01-15T13:08:53;15.20;;;7.10;;
42770;SDS011;28426;42.872;25.314;2023-01-15T13:11:29;10.85;;;5.60;;
42770;SDS011;28426;42.872;25.314;2023-01-15T13:14:00;19.38;;;10.25;;
42770;SDS011;28426;42.872;25.314;2023-01-15T13:16:39;9.15;;;4.80;;
42770;SDS011;28426;42.872;25.314;2023-01-15T13:19:18;10.95;;;6.80;;
42770;SDS011;28426;42.872;25.314;2023-01-15T13:22:02;12.48;;;7.05;;
42770;SDS011;28426;42.872;25.314;2023-01-15T13:24:48;12.25;;;4.53;;
42770;SDS011;28426;42.872;25.314;2023-01-15T13:27:39;10.50;;;5.63;;
42770;SDS011;28426;42.872;25.314;2023-01-15T13:30:27;11.82;;;6.30;;
42770;SDS011;28426;42.872;25.314;2023-01-15T13:35:45;11.98;;;6.95;;
42770;SDS011;28426;42.872;25.314;2023-01-15T13:38:24;17.80;;;7.57;;
42770;SDS011;28426;42.872;25.314;2023-01-15T13:40:57;30.58;;;7.75;;
42770;SDS011;28426;42.872;25.314;2023-01-15T13:43:29;17.23;;;8.15;;
42770;SDS011;28426;42.872;25.314;2023-01-15T13:46:05;18.70;;;8.05;;
42770;SDS011;28426;42.872;25.314;2023-01-15T13:48:41;33.20;;;7.63;;
42770;SDS011;28426;42.872;25.314;2023-01-15T13:51:22;12.95;;;7.47;;
42770;SDS011;28426;42.872;25.314;2023-01-15T13:53:59;22.88;;;6.75;;
42770;SDS011;28426;42.872;25.314;2023-01-15T13:56:31;16.35;;;8.43;;
42770;SDS011;28426;42.872;25.314;2023-01-15T13:59:03;13.32;;;7.05;;
42770;SDS011;28426;42.872;25.314;2023-01-15T14:01:35;11.35;;;6.60;;
42770;SDS011;28426;42.872;25.314;2023-01-15T14:04:11;10.18;;;5.57;;
42770;SDS011;28426;42.872;25.314;2023-01-15T14:06:44;12.07;;;7.00;;
42770;SDS011;28426;42.872;25.314;2023-01-15T14:09:28;13.48;;;7.45;;
42770;SDS011;28426;42.872;25.314;2023-01-15T14:12:03;19.70;;;9.32;;
42770;SDS011;28426;42.872;25.314;2023-01-15T14:20:55;23.35;;;10.02;;
42770;SDS011;28426;42.872;25.314;2023-01-15T14:26:29;16.50;;;5.80;;
42770;SDS011;28426;42.872;25.314;2023-01-15T14:29:18;16.88;;;6.45;;
42770;SDS011;28426;42.872;25.314;2023-01-15T14:32:02;11.48;;;5.43;;
42770;SDS011;28426;42.872;25.314;2023-01-15T14:34:42;13.25;;;6.85;;
42770;SDS011;28426;42.872;25.314;2023-01-15T14:37:22;10.38;;;6.25;;
42770;SDS011;28426;42.872;25.314;2023-01-15T14:39:56;13.10;;;7.03;;
42770;SDS011;28426;42.872;25.314;2023-01-15T14:42:33;14.60;;;7.85;;
42770;SDS011;28426;42.872;25.314;2023-01-15T14:45:21;12.52;;;7.50;;
42770;SDS011;28426;42.872;25.314;2023-01-15T14:47:55;13.98;;;7.60;;
42770;SDS011;28426;42.872;25.314;2023-01-15T14:50:28;13.15;;;7.70;;
42770;SDS011;28426;42.872;25.314;2023-01-15T14:53:05;15.10;;;9.13;;
42770;SDS011;28426;42.872;25.314;2023-01-15T14:55:49;20.27;;;11.35;;
42770;SDS011;28426;42.872;25.314;2023-01-15T14:58:30;14.10;;;8.23;;
42770;SDS011;28426;42.872;25.314;2023-01-15T15:01:14;17.65;;;8.88;;
42770;SDS011;28426;42.872;25.314;2023-01-15T15:03:54;13.82;;;8.50;;
42770;SDS011;28426;42.872;25.314;2023-01-15T15:06:27;16.35;;;9.95;;
42770;SDS011;28426;42.872;25.314;2023-01-15T15:08:59;18.13;;;10.85;;
42770;SDS011;28426;42.872;25.314;2023-01-15T15:11:40;16.58;;;10.55;;
42770;SDS011;28426;42.872;25.314;2023-01-15T15:14:29;22.38;;;13.05;;
42770;SDS011;28426;42.872;25.314;2023-01-15T15:17:02;20.92;;;11.18;;
42770;SDS011;28426;42.872;25.314;2023-01-15T15:19:41;16.70;;;9.73;;
42770;SDS011;28426;42.872;25.314;2023-01-15T15:22:19;20.27;;;11.32;;